sensor_id;sensor_type;location;lat;lon;timestamp;temperature;humidity
8565;DHT22;4320;51.498;6.556;2024-03-06T00:02:07;7.90;99.90
8565;DHT22;4320;51.498;6.556;2024-03-06T00:04:33;7.80;99.90
8565;DHT22;4320;51.498;6.556;2024-03-06T00:06:59;7.80;99.90
8565;DHT22;4320;51.498;6.556;2024-03-06T00:09:25;7.80;99.90
8565;DHT22;4320;51.498;6.556;2024-03-06T00:11:52;7.70;99.90
8565;DHT22;4320;51.498;6.556;2024-03-06T00:14:19;7.40;99.90
8565;DHT22;4320;51.498;6.556;2024-03-06T00:16:45;7.20;99.90
8565;DHT22;4320;51.498;6.556;2024-03-06T00:19:10;7.20;99.90
8565;DHT22;4320;51.498;6.556;2024-03-06T00:21:36;7.20;99.90
8565;DHT22;4320;51.498;6.556;2024-03-06T00:24:02;7.10;99.90
8565;DHT22;4320;51.498;6.556;2024-03-06T00:26:29;7.20;99.90
8565;DHT22;4320;51.498;6.556;2024-03-06T00:28:55;7.10;99.90
8565;DHT22;4320;51.498;6.556;2024-03-06T00:31:20;7.00;99.90
8565;DHT22;4320;51.498;6.556;2024-03-06T00:33:46;6.90;99.90
8565;DHT22;4320;51.498;6.556;2024-03-06T00:36:11;7.00;99.90
8565;DHT22;4320;51.498;6.556;2024-03-06T00:38:37;6.90;99.90
8565;DHT22;4320;51.498;6.556;2024-03-06T00:41:03;6.90;99.90
8565;DHT22;4320;51.498;6.556;2024-03-06T00:43:29;6.80;99.90
8565;DHT22;4320;51.498;6.556;2024-03-06T00:45:54;6.80;99.90
8565;DHT22;4320;51.498;6.556;2024-03-06T00:48:21;6.90;99.90
8565;DHT22;4320;51.498;6.556;2024-03-06T00:50:47;7.10;99.90
8565;DHT22;4320;51.498;6.556;2024-03-06T00:53:12;7.20;99.90
8565;DHT22;4320;51.498;6.556;2024-03-06T00:55:38;7.30;99.90
8565;DHT22;4320;51.498;6.556;2024-03-06T00:58:04;7.20;99.90
8565;DHT22;4320;51.498;6.556;2024-03-06T01:00:32;7.00;99.90
8565;DHT22;4320;51.498;6.556;2024-03-06T01:02:57;7.00;99.90
8565;DHT22;4320;51.498;6.556;2024-03-06T01:05:23;7.00;99.90
8565;DHT22;4320;51.498;6.556;2024-03-06T01:07:48;6.90;99.90
8565;DHT22;4320;51.498;6.556;2024-03-06T01:10:14;6.70;99.90
8565;DHT22;4320;51.498;6.556;2024-03-06T01:12:40;6.70;99.90
8565;DHT22;4320;51.498;6.556;2024-03-06T01:15:05;6.70;99.90
8565;DHT22;4320;51.498;6.556;2024-03-06T01:17:33;6.60;99.90
8565;DHT22;4320;51.498;6.556;2024-03-06T01:19:59;6.60;99.90
8565;DHT22;4320;51.498;6.556;2024-03-06T01:22:25;6.70;99.90
8565;DHT22;4320;51.498;6.556;2024-03-06T01:24:52;6.80;99.90
8565;DHT22;4320;51.498;6.556;2024-03-06T01:27:17;6.90;99.90
8565;DHT22;4320;51.498;6.556;2024-03-06T01:29:43;6.90;99.90
8565;DHT22;4320;51.498;6.556;2024-03-06T01:32:08;7.00;99.90
8565;DHT22;4320;51.498;6.556;2024-03-06T01:34:35;7.10;99.90
8565;DHT22;4320;51.498;6.556;2024-03-06T01:37:01;7.00;99.90
8565;DHT22;4320;51.498;6.556;2024-03-06T01:39:27;6.90;99.90
8565;DHT22;4320;51.498;6.556;2024-03-06T01:41:52;7.10;99.90
8565;DHT22;4320;51.498;6.556;2024-03-06T01:44:19;7.30;99.90
8565;DHT22;4320;51.498;6.556;2024-03-06T01:46:45;7.40;99.90
8565;DHT22;4320;51.498;6.556;2024-03-06T01:49:12;7.40;99.90
8565;DHT22;4320;51.498;6.556;2024-03-06T01:51:43;7.30;99.90
8565;DHT22;4320;51.498;6.556;2024-03-06T01:54:10;7.20;99.90
8565;DHT22;4320;51.498;6.556;2024-03-06T01:56:38;7.10;99.90
8565;DHT22;4320;51.498;6.556;2024-03-06T01:59:07;7.00;99.90
8565;DHT22;4320;51.498;6.556;2024-03-06T02:01:33;7.30;99.90
8565;DHT22;4320;51.498;6.556;2024-03-06T02:03:59;7.30;99.90
8565;DHT22;4320;51.498;6.556;2024-03-06T02:06:25;7.40;99.90
8565;DHT22;4320;51.498;6.556;2024-03-06T02:08:51;7.20;99.90
8565;DHT22;4320;51.498;6.556;2024-03-06T02:11:17;7.10;99.90
8565;DHT22;4320;51.498;6.556;2024-03-06T02:13:43;7.00;99.90
8565;DHT22;4320;51.498;6.556;2024-03-06T02:16:10;7.00;99.90
8565;DHT22;4320;51.498;6.556;2024-03-06T02:18:36;7.10;99.90
8565;DHT22;4320;51.498;6.556;2024-03-06T02:21:02;7.20;99.90
8565;DHT22;4320;51.498;6.556;2024-03-06T02:23:28;7.20;99.90
8565;DHT22;4320;51.498;6.556;2024-03-06T02:25:54;7.30;99.90
8565;DHT22;4320;51.498;6.556;2024-03-06T02:28:19;7.40;99.90
8565;DHT22;4320;51.498;6.556;2024-03-06T02:30:49;7.60;99.90
8565;DHT22;4320;51.498;6.556;2024-03-06T02:33:14;7.70;99.90
8565;DHT22;4320;51.498;6.556;2024-03-06T02:35:40;7.70;99.90
8565;DHT22;4320;51.498;6.556;2024-03-06T02:38:06;7.60;99.90
8565;DHT22;4320;51.498;6.556;2024-03-06T02:40:32;7.30;99.90
8565;DHT22;4320;51.498;6.556;2024-03-06T02:42:58;7.30;99.90
8565;DHT22;4320;51.498;6.556;2024-03-06T02:45:23;7.50;99.90
8565;DHT22;4320;51.498;6.556;2024-03-06T02:47:49;7.60;99.90
8565;DHT22;4320;51.498;6.556;2024-03-06T02:50:15;7.50;99.90
8565;DHT22;4320;51.498;6.556;2024-03-06T02:52:41;7.50;99.90
8565;DHT22;4320;51.498;6.556;2024-03-06T02:55:07;7.40;99.90
8565;DHT22;4320;51.498;6.556;2024-03-06T02:57:32;7.20;99.90
8565;DHT22;4320;51.498;6.556;2024-03-06T02:59:58;7.40;99.90
8565;DHT22;4320;51.498;6.556;2024-03-06T03:02:24;7.40;99.90
8565;DHT22;4320;51.498;6.556;2024-03-06T03:04:51;7.50;99.90
8565;DHT22;4320;51.498;6.556;2024-03-06T03:07:20;7.60;99.90
8565;DHT22;4320;51.498;6.556;2024-03-06T03:09:46;7.60;99.90
8565;DHT22;4320;51.498;6.556;2024-03-06T03:12:12;7.70;99.90
8565;DHT22;4320;51.498;6.556;2024-03-06T03:14:40;7.60;99.90
8565;DHT22;4320;51.498;6.556;2024-03-06T03:17:06;7.60;99.90
8565;DHT22;4320;51.498;6.556;2024-03-06T03:19:32;7.30;99.90
8565;DHT22;4320;51.498;6.556;2024-03-06T03:21:58;7.00;99.90
8565;DHT22;4320;51.498;6.556;2024-03-06T03:24:24;6.90;99.90
8565;DHT22;4320;51.498;6.556;2024-03-06T03:26:52;6.90;99.90
8565;DHT22;4320;51.498;6.556;2024-03-06T03:29:18;6.70;99.90
8565;DHT22;4320;51.498;6.556;2024-03-06T03:31:44;6.60;99.90
8565;DHT22;4320;51.498;6.556;2024-03-06T03:34:10;6.60;99.90
8565;DHT22;4320;51.498;6.556;2024-03-06T03:36:42;6.70;99.90
8565;DHT22;4320;51.498;6.556;2024-03-06T03:39:08;6.70;99.90
8565;DHT22;4320;51.498;6.556;2024-03-06T03:41:47;6.70;99.90
8565;DHT22;4320;51.498;6.556;2024-03-06T03:44:16;6.70;99.90
8565;DHT22;4320;51.498;6.556;2024-03-06T03:46:43;6.60;99.90
8565;DHT22;4320;51.498;6.556;2024-03-06T03:49:09;6.60;99.90
8565;DHT22;4320;51.498;6.556;2024-03-06T03:51:38;6.60;99.90
8565;DHT22;4320;51.498;6.556;2024-03-06T03:54:04;6.60;99.90
8565;DHT22;4320;51.498;6.556;2024-03-06T03:56:30;6.60;99.90
8565;DHT22;4320;51.498;6.556;2024-03-06T03:58:57;6.60;99.90
8565;DHT22;4320;51.498;6.556;2024-03-06T04:01:24;6.70;99.90
8565;DHT22;4320;51.498;6.556;2024-03-06T04:03:49;6.60;99.90
8565;DHT22;4320;51.498;6.556;2024-03-06T04:06:16;6.40;99.90
8565;DHT22;4320;51.498;6.556;2024-03-06T04:08:42;6.40;99.90
8565;DHT22;4320;51.498;6.556;2024-03-06T04:11:07;6.20;99.90
8565;DHT22;4320;51.498;6.556;2024-03-06T04:13:37;6.20;99.90
8565;DHT22;4320;51.498;6.556;2024-03-06T04:16:03;6.20;99.90
8565;DHT22;4320;51.498;6.556;2024-03-06T04:18:29;6.30;99.90
8565;DHT22;4320;51.498;6.556;2024-03-06T04:21:03;6.40;99.90
8565;DHT22;4320;51.498;6.556;2024-03-06T04:23:29;6.20;99.90
8565;DHT22;4320;51.498;6.556;2024-03-06T04:25:55;6.20;99.90
8565;DHT22;4320;51.498;6.556;2024-03-06T04:28:21;6.20;99.90
8565;DHT22;4320;51.498;6.556;2024-03-06T04:30:47;6.10;99.90
8565;DHT22;4320;51.498;6.556;2024-03-06T04:33:12;6.10;99.90
8565;DHT22;4320;51.498;6.556;2024-03-06T04:35:40;6.20;99.90
8565;DHT22;4320;51.498;6.556;2024-03-06T04:38:06;5.90;99.90
8565;DHT22;4320;51.498;6.556;2024-03-06T04:40:31;5.70;99.90
8565;DHT22;4320;51.498;6.556;2024-03-06T04:42:57;5.70;99.90
8565;DHT22;4320;51.498;6.556;2024-03-06T04:45:23;5.70;99.90
8565;DHT22;4320;51.498;6.556;2024-03-06T04:47:49;5.60;99.90
8565;DHT22;4320;51.498;6.556;2024-03-06T04:50:15;5.80;99.90
8565;DHT22;4320;51.498;6.556;2024-03-06T04:52:41;5.90;99.90
8565;DHT22;4320;51.498;6.556;2024-03-06T04:55:08;6.00;99.90
8565;DHT22;4320;51.498;6.556;2024-03-06T04:57:36;6.10;99.90
8565;DHT22;4320;51.498;6.556;2024-03-06T05:00:02;6.10;99.90
8565;DHT22;4320;51.498;6.556;2024-03-06T05:02:31;5.90;99.90
8565;DHT22;4320;51.498;6.556;2024-03-06T05:05:00;5.80;99.90
8565;DHT22;4320;51.498;6.556;2024-03-06T05:07:27;5.80;99.90
8565;DHT22;4320;51.498;6.556;2024-03-06T05:09:53;5.90;99.90
8565;DHT22;4320;51.498;6.556;2024-03-06T05:12:18;5.90;99.90
8565;DHT22;4320;51.498;6.556;2024-03-06T05:14:44;6.10;99.90
8565;DHT22;4320;51.498;6.556;2024-03-06T05:17:09;6.30;99.90
8565;DHT22;4320;51.498;6.556;2024-03-06T05:19:36;6.30;99.90
8565;DHT22;4320;51.498;6.556;2024-03-06T05:22:02;6.30;99.90
8565;DHT22;4320;51.498;6.556;2024-03-06T05:24:29;6.30;99.90
8565;DHT22;4320;51.498;6.556;2024-03-06T05:26:55;6.00;99.90
8565;DHT22;4320;51.498;6.556;2024-03-06T05:29:21;6.00;99.90
8565;DHT22;4320;51.498;6.556;2024-03-06T05:31:46;5.90;99.90
8565;DHT22;4320;51.498;6.556;2024-03-06T05:34:12;5.80;99.90
8565;DHT22;4320;51.498;6.556;2024-03-06T05:36:37;5.80;99.90
8565;DHT22;4320;51.498;6.556;2024-03-06T05:39:03;5.90;99.90
8565;DHT22;4320;51.498;6.556;2024-03-06T05:41:32;5.80;99.90
8565;DHT22;4320;51.498;6.556;2024-03-06T05:43:58;5.70;99.90
8565;DHT22;4320;51.498;6.556;2024-03-06T05:46:24;5.60;99.90
8565;DHT22;4320;51.498;6.556;2024-03-06T05:48:49;5.60;99.90
8565;DHT22;4320;51.498;6.556;2024-03-06T05:51:16;5.70;99.90
8565;DHT22;4320;51.498;6.556;2024-03-06T05:53:42;5.70;99.90
8565;DHT22;4320;51.498;6.556;2024-03-06T05:56:09;5.60;99.90
8565;DHT22;4320;51.498;6.556;2024-03-06T05:58:34;5.70;99.90
8565;DHT22;4320;51.498;6.556;2024-03-06T06:01:00;5.70;99.90
8565;DHT22;4320;51.498;6.556;2024-03-06T06:03:27;5.60;99.90
8565;DHT22;4320;51.498;6.556;2024-03-06T06:05:54;5.40;99.90
8565;DHT22;4320;51.498;6.556;2024-03-06T06:08:19;5.50;99.90
8565;DHT22;4320;51.498;6.556;2024-03-06T06:10:45;5.50;99.90
8565;DHT22;4320;51.498;6.556;2024-03-06T06:13:11;5.50;99.90
8565;DHT22;4320;51.498;6.556;2024-03-06T06:15:36;5.50;99.90
8565;DHT22;4320;51.498;6.556;2024-03-06T06:18:02;5.70;99.90
8565;DHT22;4320;51.498;6.556;2024-03-06T06:20:27;5.70;99.90
8565;DHT22;4320;51.498;6.556;2024-03-06T06:22:53;5.70;99.90
8565;DHT22;4320;51.498;6.556;2024-03-06T06:25:19;5.70;99.90
8565;DHT22;4320;51.498;6.556;2024-03-06T06:27:44;5.80;99.90
8565;DHT22;4320;51.498;6.556;2024-03-06T06:30:10;5.70;99.90
8565;DHT22;4320;51.498;6.556;2024-03-06T06:32:39;5.70;99.90
8565;DHT22;4320;51.498;6.556;2024-03-06T06:35:06;5.70;99.90
8565;DHT22;4320;51.498;6.556;2024-03-06T06:37:32;5.60;99.90
8565;DHT22;4320;51.498;6.556;2024-03-06T06:39:57;5.60;99.90
8565;DHT22;4320;51.498;6.556;2024-03-06T06:42:24;5.60;99.90
8565;DHT22;4320;51.498;6.556;2024-03-06T06:44:50;5.70;99.90
8565;DHT22;4320;51.498;6.556;2024-03-06T06:47:17;5.90;99.90
8565;DHT22;4320;51.498;6.556;2024-03-06T06:49:42;6.10;99.90
8565;DHT22;4320;51.498;6.556;2024-03-06T06:52:08;6.20;99.90
8565;DHT22;4320;51.498;6.556;2024-03-06T06:54:34;6.10;99.90
8565;DHT22;4320;51.498;6.556;2024-03-06T06:56:59;5.90;99.90
8565;DHT22;4320;51.498;6.556;2024-03-06T06:59:25;5.90;99.90
8565;DHT22;4320;51.498;6.556;2024-03-06T07:01:50;6.00;99.90
8565;DHT22;4320;51.498;6.556;2024-03-06T07:04:16;6.10;99.90
8565;DHT22;4320;51.498;6.556;2024-03-06T07:06:45;6.40;99.90
8565;DHT22;4320;51.498;6.556;2024-03-06T07:09:12;6.60;99.90
8565;DHT22;4320;51.498;6.556;2024-03-06T07:11:37;6.70;99.90
8565;DHT22;4320;51.498;6.556;2024-03-06T07:14:03;6.70;99.90
8565;DHT22;4320;51.498;6.556;2024-03-06T07:16:28;6.70;99.90
8565;DHT22;4320;51.498;6.556;2024-03-06T07:18:54;6.70;99.90
8565;DHT22;4320;51.498;6.556;2024-03-06T07:21:20;7.00;99.90
8565;DHT22;4320;51.498;6.556;2024-03-06T07:23:45;7.10;99.90
8565;DHT22;4320;51.498;6.556;2024-03-06T07:26:11;7.20;99.90
8565;DHT22;4320;51.498;6.556;2024-03-06T07:28:36;7.30;99.90
8565;DHT22;4320;51.498;6.556;2024-03-06T07:31:05;7.20;99.90
8565;DHT22;4320;51.498;6.556;2024-03-06T07:33:31;7.40;99.90
8565;DHT22;4320;51.498;6.556;2024-03-06T07:36:00;7.60;99.90
8565;DHT22;4320;51.498;6.556;2024-03-06T07:38:26;7.90;99.90
8565;DHT22;4320;51.498;6.556;2024-03-06T07:40:51;8.00;99.90
8565;DHT22;4320;51.498;6.556;2024-03-06T07:43:17;8.10;99.90
8565;DHT22;4320;51.498;6.556;2024-03-06T07:45:43;8.30;99.90
8565;DHT22;4320;51.498;6.556;2024-03-06T07:48:09;8.30;99.90
8565;DHT22;4320;51.498;6.556;2024-03-06T07:50:35;8.40;99.90
8565;DHT22;4320;51.498;6.556;2024-03-06T07:53:00;8.50;99.90
8565;DHT22;4320;51.498;6.556;2024-03-06T07:55:27;8.30;99.90
8565;DHT22;4320;51.498;6.556;2024-03-06T07:57:53;8.30;99.90
8565;DHT22;4320;51.498;6.556;2024-03-06T08:00:19;8.40;99.90
8565;DHT22;4320;51.498;6.556;2024-03-06T08:02:45;8.40;99.90
8565;DHT22;4320;51.498;6.556;2024-03-06T08:05:17;8.60;99.90
8565;DHT22;4320;51.498;6.556;2024-03-06T08:07:43;8.60;99.90
8565;DHT22;4320;51.498;6.556;2024-03-06T08:10:11;8.30;99.90
8565;DHT22;4320;51.498;6.556;2024-03-06T08:12:40;8.50;99.90
8565;DHT22;4320;51.498;6.556;2024-03-06T08:15:07;8.80;99.90
8565;DHT22;4320;51.498;6.556;2024-03-06T08:17:35;9.30;99.90
8565;DHT22;4320;51.498;6.556;2024-03-06T08:20:02;9.90;99.90
8565;DHT22;4320;51.498;6.556;2024-03-06T08:22:27;10.30;99.90
8565;DHT22;4320;51.498;6.556;2024-03-06T08:24:53;10.90;99.90
8565;DHT22;4320;51.498;6.556;2024-03-06T08:27:18;11.90;99.90
8565;DHT22;4320;51.498;6.556;2024-03-06T08:29:44;12.40;94.00
8565;DHT22;4320;51.498;6.556;2024-03-06T08:32:10;13.10;74.70
8565;DHT22;4320;51.498;6.556;2024-03-06T08:34:35;13.40;56.10
8565;DHT22;4320;51.498;6.556;2024-03-06T08:37:02;13.60;43.30
8565;DHT22;4320;51.498;6.556;2024-03-06T08:39:27;14.00;31.80
8565;DHT22;4320;51.498;6.556;2024-03-06T08:41:54;14.80;22.80
8565;DHT22;4320;51.498;6.556;2024-03-06T08:44:19;15.60;16.10
8565;DHT22;4320;51.498;6.556;2024-03-06T08:46:45;16.20;2.10
8565;DHT22;4320;51.498;6.556;2024-03-06T08:49:11;16.80;1.00
8565;DHT22;4320;51.498;6.556;2024-03-06T08:51:36;17.20;1.00
8565;DHT22;4320;51.498;6.556;2024-03-06T08:54:02;17.20;1.00
8565;DHT22;4320;51.498;6.556;2024-03-06T08:56:28;16.70;1.00
8565;DHT22;4320;51.498;6.556;2024-03-06T08:58:53;15.60;1.00
8565;DHT22;4320;51.498;6.556;2024-03-06T09:01:19;15.00;1.00
8565;DHT22;4320;51.498;6.556;2024-03-06T09:03:44;14.80;1.00
8565;DHT22;4320;51.498;6.556;2024-03-06T09:06:10;14.80;1.00
8565;DHT22;4320;51.498;6.556;2024-03-06T09:08:36;14.80;1.00
8565;DHT22;4320;51.498;6.556;2024-03-06T09:11:01;15.60;1.00
8565;DHT22;4320;51.498;6.556;2024-03-06T09:13:28;16.50;1.00
8565;DHT22;4320;51.498;6.556;2024-03-06T09:15:53;17.30;1.00
8565;DHT22;4320;51.498;6.556;2024-03-06T09:18:19;17.60;1.00
8565;DHT22;4320;51.498;6.556;2024-03-06T09:20:45;18.20;1.00
8565;DHT22;4320;51.498;6.556;2024-03-06T09:23:11;17.90;1.00
8565;DHT22;4320;51.498;6.556;2024-03-06T09:25:37;17.60;1.00
8565;DHT22;4320;51.498;6.556;2024-03-06T09:28:02;17.80;1.00
8565;DHT22;4320;51.498;6.556;2024-03-06T09:30:30;17.60;1.00
8565;DHT22;4320;51.498;6.556;2024-03-06T09:32:56;16.80;1.00
8565;DHT22;4320;51.498;6.556;2024-03-06T09:35:21;16.10;1.00
8565;DHT22;4320;51.498;6.556;2024-03-06T09:37:47;16.10;1.00
8565;DHT22;4320;51.498;6.556;2024-03-06T09:40:20;15.00;1.00
8565;DHT22;4320;51.498;6.556;2024-03-06T09:42:48;15.60;1.00
8565;DHT22;4320;51.498;6.556;2024-03-06T09:45:14;16.00;1.00
8565;DHT22;4320;51.498;6.556;2024-03-06T09:47:40;16.40;1.00
8565;DHT22;4320;51.498;6.556;2024-03-06T09:50:09;16.50;1.00
8565;DHT22;4320;51.498;6.556;2024-03-06T09:52:36;16.80;1.00
8565;DHT22;4320;51.498;6.556;2024-03-06T09:55:02;16.50;1.00
8565;DHT22;4320;51.498;6.556;2024-03-06T09:57:29;17.20;1.00
8565;DHT22;4320;51.498;6.556;2024-03-06T09:59:55;17.10;1.00
8565;DHT22;4320;51.498;6.556;2024-03-06T10:02:36;16.80;1.00
8565;DHT22;4320;51.498;6.556;2024-03-06T10:05:03;16.60;1.00
8565;DHT22;4320;51.498;6.556;2024-03-06T10:07:29;15.30;1.00
8565;DHT22;4320;51.498;6.556;2024-03-06T10:09:55;15.40;1.00
8565;DHT22;4320;51.498;6.556;2024-03-06T10:12:21;15.50;1.00
8565;DHT22;4320;51.498;6.556;2024-03-06T10:14:53;16.10;1.00
8565;DHT22;4320;51.498;6.556;2024-03-06T10:17:20;16.50;1.00
8565;DHT22;4320;51.498;6.556;2024-03-06T10:19:49;16.90;1.00
8565;DHT22;4320;51.498;6.556;2024-03-06T10:22:19;16.40;1.00
8565;DHT22;4320;51.498;6.556;2024-03-06T10:24:45;16.30;1.00
8565;DHT22;4320;51.498;6.556;2024-03-06T10:27:15;16.40;1.00
8565;DHT22;4320;51.498;6.556;2024-03-06T10:29:44;16.90;1.00
8565;DHT22;4320;51.498;6.556;2024-03-06T10:32:10;17.00;1.00
8565;DHT22;4320;51.498;6.556;2024-03-06T10:34:37;16.50;1.00
8565;DHT22;4320;51.498;6.556;2024-03-06T10:37:03;16.00;1.00
8565;DHT22;4320;51.498;6.556;2024-03-06T10:39:30;15.10;1.00
8565;DHT22;4320;51.498;6.556;2024-03-06T10:42:02;14.80;1.00
8565;DHT22;4320;51.498;6.556;2024-03-06T10:44:27;14.40;1.00
8565;DHT22;4320;51.498;6.556;2024-03-06T10:47:01;14.10;1.00
8565;DHT22;4320;51.498;6.556;2024-03-06T10:49:29;14.50;1.00
8565;DHT22;4320;51.498;6.556;2024-03-06T10:52:00;14.80;1.00
8565;DHT22;4320;51.498;6.556;2024-03-06T10:54:29;15.00;1.00
8565;DHT22;4320;51.498;6.556;2024-03-06T10:56:55;14.40;1.00
8565;DHT22;4320;51.498;6.556;2024-03-06T10:59:24;14.40;1.00
8565;DHT22;4320;51.498;6.556;2024-03-06T11:01:53;13.90;1.00
8565;DHT22;4320;51.498;6.556;2024-03-06T11:04:20;14.20;1.00
8565;DHT22;4320;51.498;6.556;2024-03-06T11:06:46;14.40;1.00
8565;DHT22;4320;51.498;6.556;2024-03-06T11:09:13;14.80;1.00
8565;DHT22;4320;51.498;6.556;2024-03-06T11:11:49;15.40;1.00
8565;DHT22;4320;51.498;6.556;2024-03-06T11:14:15;15.40;1.00
8565;DHT22;4320;51.498;6.556;2024-03-06T11:19:22;15.40;1.00
8565;DHT22;4320;51.498;6.556;2024-03-06T11:21:48;14.80;1.00
8565;DHT22;4320;51.498;6.556;2024-03-06T11:24:38;14.70;1.00
8565;DHT22;4320;51.498;6.556;2024-03-06T11:27:04;15.00;1.00
8565;DHT22;4320;51.498;6.556;2024-03-06T11:30:03;15.10;1.00
8565;DHT22;4320;51.498;6.556;2024-03-06T11:32:29;15.70;1.00
8565;DHT22;4320;51.498;6.556;2024-03-06T11:34:55;15.90;1.00
8565;DHT22;4320;51.498;6.556;2024-03-06T11:37:21;16.40;1.00
8565;DHT22;4320;51.498;6.556;2024-03-06T11:39:48;15.90;1.00
8565;DHT22;4320;51.498;6.556;2024-03-06T11:42:14;15.60;1.00
8565;DHT22;4320;51.498;6.556;2024-03-06T11:44:53;16.20;1.00
8565;DHT22;4320;51.498;6.556;2024-03-06T11:47:20;16.10;1.00
8565;DHT22;4320;51.498;6.556;2024-03-06T11:49:46;15.80;1.00
8565;DHT22;4320;51.498;6.556;2024-03-06T11:52:11;15.60;1.00
8565;DHT22;4320;51.498;6.556;2024-03-06T11:54:37;15.90;1.00
8565;DHT22;4320;51.498;6.556;2024-03-06T11:57:04;15.70;1.00
8565;DHT22;4320;51.498;6.556;2024-03-06T11:59:33;15.80;1.00
8565;DHT22;4320;51.498;6.556;2024-03-06T12:02:00;15.80;1.00
8565;DHT22;4320;51.498;6.556;2024-03-06T12:04:34;15.90;1.00
8565;DHT22;4320;51.498;6.556;2024-03-06T12:07:01;15.60;1.00
8565;DHT22;4320;51.498;6.556;2024-03-06T12:09:34;15.00;1.00
8565;DHT22;4320;51.498;6.556;2024-03-06T12:12:00;14.40;1.00
8565;DHT22;4320;51.498;6.556;2024-03-06T12:14:27;14.30;1.00
8565;DHT22;4320;51.498;6.556;2024-03-06T12:19:22;14.00;1.00
8565;DHT22;4320;51.498;6.556;2024-03-06T12:21:48;13.50;1.00
8565;DHT22;4320;51.498;6.556;2024-03-06T12:24:16;13.30;1.00
8565;DHT22;4320;51.498;6.556;2024-03-06T12:26:42;13.00;1.00
8565;DHT22;4320;51.498;6.556;2024-03-06T12:29:10;12.90;1.00
8565;DHT22;4320;51.498;6.556;2024-03-06T12:31:41;12.90;1.00
8565;DHT22;4320;51.498;6.556;2024-03-06T12:34:43;13.10;1.00
8565;DHT22;4320;51.498;6.556;2024-03-06T12:37:09;13.40;1.00
8565;DHT22;4320;51.498;6.556;2024-03-06T12:39:38;13.70;1.00
8565;DHT22;4320;51.498;6.556;2024-03-06T12:42:04;14.00;1.00
8565;DHT22;4320;51.498;6.556;2024-03-06T12:44:29;13.70;1.00
8565;DHT22;4320;51.498;6.556;2024-03-06T12:46:55;13.60;1.00
8565;DHT22;4320;51.498;6.556;2024-03-06T12:49:20;13.20;1.00
8565;DHT22;4320;51.498;6.556;2024-03-06T12:51:46;13.10;1.00
8565;DHT22;4320;51.498;6.556;2024-03-06T12:54:12;13.00;1.00
8565;DHT22;4320;51.498;6.556;2024-03-06T12:56:38;13.20;1.00
8565;DHT22;4320;51.498;6.556;2024-03-06T12:59:03;13.00;1.00
8565;DHT22;4320;51.498;6.556;2024-03-06T13:01:30;12.80;1.00
8565;DHT22;4320;51.498;6.556;2024-03-06T13:03:56;13.00;1.00
8565;DHT22;4320;51.498;6.556;2024-03-06T13:06:21;13.00;1.00
8565;DHT22;4320;51.498;6.556;2024-03-06T13:08:47;12.80;1.00
8565;DHT22;4320;51.498;6.556;2024-03-06T13:11:13;12.70;1.00
8565;DHT22;4320;51.498;6.556;2024-03-06T13:13:39;12.90;1.00
8565;DHT22;4320;51.498;6.556;2024-03-06T13:16:05;13.20;1.00
8565;DHT22;4320;51.498;6.556;2024-03-06T13:18:30;13.00;1.00
8565;DHT22;4320;51.498;6.556;2024-03-06T13:20:56;12.90;1.00
8565;DHT22;4320;51.498;6.556;2024-03-06T13:23:23;13.00;1.00
8565;DHT22;4320;51.498;6.556;2024-03-06T13:25:49;13.30;1.00
8565;DHT22;4320;51.498;6.556;2024-03-06T13:28:15;13.60;1.00
8565;DHT22;4320;51.498;6.556;2024-03-06T13:30:40;13.60;1.00
8565;DHT22;4320;51.498;6.556;2024-03-06T13:33:06;13.70;1.00
8565;DHT22;4320;51.498;6.556;2024-03-06T13:35:33;14.00;1.00
8565;DHT22;4320;51.498;6.556;2024-03-06T13:37:58;14.40;1.00
8565;DHT22;4320;51.498;6.556;2024-03-06T13:40:24;14.80;1.00
8565;DHT22;4320;51.498;6.556;2024-03-06T13:42:52;15.00;1.00
8565;DHT22;4320;51.498;6.556;2024-03-06T13:45:17;15.30;1.00
8565;DHT22;4320;51.498;6.556;2024-03-06T13:47:44;15.30;1.00
8565;DHT22;4320;51.498;6.556;2024-03-06T13:50:12;15.40;1.00
8565;DHT22;4320;51.498;6.556;2024-03-06T13:52:38;15.40;1.00
8565;DHT22;4320;51.498;6.556;2024-03-06T13:55:04;15.30;1.00
8565;DHT22;4320;51.498;6.556;2024-03-06T13:57:32;15.20;1.00
8565;DHT22;4320;51.498;6.556;2024-03-06T14:00:00;15.40;1.00
8565;DHT22;4320;51.498;6.556;2024-03-06T14:02:26;15.30;1.00
8565;DHT22;4320;51.498;6.556;2024-03-06T14:04:51;15.20;1.00
8565;DHT22;4320;51.498;6.556;2024-03-06T14:07:17;15.50;1.00
8565;DHT22;4320;51.498;6.556;2024-03-06T14:09:43;15.70;1.00
8565;DHT22;4320;51.498;6.556;2024-03-06T14:12:09;15.60;1.00
8565;DHT22;4320;51.498;6.556;2024-03-06T14:14:34;15.40;1.00
8565;DHT22;4320;51.498;6.556;2024-03-06T14:17:00;15.00;1.00
8565;DHT22;4320;51.498;6.556;2024-03-06T14:19:25;14.90;1.00
8565;DHT22;4320;51.498;6.556;2024-03-06T14:21:51;14.80;1.00
8565;DHT22;4320;51.498;6.556;2024-03-06T14:24:17;14.50;1.00
8565;DHT22;4320;51.498;6.556;2024-03-06T14:26:43;14.20;1.00
8565;DHT22;4320;51.498;6.556;2024-03-06T14:29:09;14.20;1.00
8565;DHT22;4320;51.498;6.556;2024-03-06T14:31:35;14.20;1.00
8565;DHT22;4320;51.498;6.556;2024-03-06T14:34:00;14.30;1.00
8565;DHT22;4320;51.498;6.556;2024-03-06T14:36:26;14.30;1.00
8565;DHT22;4320;51.498;6.556;2024-03-06T14:38:52;14.10;1.00
8565;DHT22;4320;51.498;6.556;2024-03-06T14:41:21;14.10;1.00
8565;DHT22;4320;51.498;6.556;2024-03-06T14:43:46;14.00;1.00
8565;DHT22;4320;51.498;6.556;2024-03-06T14:46:12;13.70;1.00
8565;DHT22;4320;51.498;6.556;2024-03-06T14:48:38;13.60;1.00
8565;DHT22;4320;51.498;6.556;2024-03-06T14:51:06;13.60;1.00
8565;DHT22;4320;51.498;6.556;2024-03-06T14:53:31;13.60;1.00
8565;DHT22;4320;51.498;6.556;2024-03-06T14:55:57;13.60;1.00
8565;DHT22;4320;51.498;6.556;2024-03-06T14:58:23;13.50;1.00
8565;DHT22;4320;51.498;6.556;2024-03-06T15:00:49;13.50;1.00
8565;DHT22;4320;51.498;6.556;2024-03-06T15:03:16;13.70;1.00
8565;DHT22;4320;51.498;6.556;2024-03-06T15:05:43;13.60;1.00
8565;DHT22;4320;51.498;6.556;2024-03-06T15:08:09;13.60;1.00
8565;DHT22;4320;51.498;6.556;2024-03-06T15:10:35;13.40;1.00
8565;DHT22;4320;51.498;6.556;2024-03-06T15:13:00;13.60;1.00
8565;DHT22;4320;51.498;6.556;2024-03-06T15:15:26;13.60;1.00
8565;DHT22;4320;51.498;6.556;2024-03-06T15:17:52;13.50;1.00
8565;DHT22;4320;51.498;6.556;2024-03-06T15:20:17;13.50;1.00
8565;DHT22;4320;51.498;6.556;2024-03-06T15:22:43;13.70;1.00
8565;DHT22;4320;51.498;6.556;2024-03-06T15:25:10;13.70;1.00
8565;DHT22;4320;51.498;6.556;2024-03-06T15:27:37;13.70;1.00
8565;DHT22;4320;51.498;6.556;2024-03-06T15:30:07;13.70;1.00
8565;DHT22;4320;51.498;6.556;2024-03-06T15:32:34;13.80;1.00
8565;DHT22;4320;51.498;6.556;2024-03-06T15:35:00;13.70;1.00
8565;DHT22;4320;51.498;6.556;2024-03-06T15:37:26;13.60;1.00
8565;DHT22;4320;51.498;6.556;2024-03-06T15:39:52;13.60;1.00
8565;DHT22;4320;51.498;6.556;2024-03-06T15:42:18;13.60;1.00
8565;DHT22;4320;51.498;6.556;2024-03-06T15:44:43;13.80;1.00
8565;DHT22;4320;51.498;6.556;2024-03-06T15:47:09;13.90;1.00
8565;DHT22;4320;51.498;6.556;2024-03-06T15:49:35;13.90;1.00
8565;DHT22;4320;51.498;6.556;2024-03-06T15:52:01;14.00;1.00
8565;DHT22;4320;51.498;6.556;2024-03-06T15:54:26;14.10;1.00
8565;DHT22;4320;51.498;6.556;2024-03-06T15:56:52;14.20;1.00
8565;DHT22;4320;51.498;6.556;2024-03-06T15:59:17;14.30;1.00
8565;DHT22;4320;51.498;6.556;2024-03-06T16:01:43;14.40;1.00
8565;DHT22;4320;51.498;6.556;2024-03-06T16:04:10;14.50;1.00
8565;DHT22;4320;51.498;6.556;2024-03-06T16:06:35;14.40;1.00
8565;DHT22;4320;51.498;6.556;2024-03-06T16:09:02;14.40;1.00
8565;DHT22;4320;51.498;6.556;2024-03-06T16:11:28;14.40;1.00
8565;DHT22;4320;51.498;6.556;2024-03-06T16:13:55;14.30;1.00
8565;DHT22;4320;51.498;6.556;2024-03-06T16:16:25;14.40;1.00
8565;DHT22;4320;51.498;6.556;2024-03-06T16:18:50;14.30;1.00